Time;durP1;ratioP1;P1;durP2;ratioP2;P2;SDS_P1;SDS_P2;PMS_P1;PMS_P2;Temp;Humidity;BMP_temperature;BMP_pressure;BME280_temperature;BME280_humidity;BME280_pressure;Samples;Min_cycle;Max_cycle;Signal;HPM_P1;HPM_P2
2022/09/28 00:00:08;;;;;;;13.36;9.30;;;;;;;;;;5326241;28;20467;-64
2022/09/28 00:02:39;;;;;;;9.45;8.13;;;;;;;;;;5324776;28;20463;-64
2022/09/28 00:05:11;;;;;;;10.63;9.30;;;;;;;;;;5326447;28;20022;-64
2022/09/28 00:07:42;;;;;;;10.95;8.82;;;;;;;;;;5325641;28;20020;-64
2022/09/28 00:10:14;;;;;;;10.23;9.15;;;;;;;;;;5325450;28;20020;-64
2022/09/28 00:12:46;;;;;;;12.00;8.98;;;;;;;;;;5325505;28;20027;-64
2022/09/28 00:15:17;;;;;;;10.13;9.20;;;;;;;;;;5325957;28;20393;-64
2022/09/28 00:17:48;;;;;;;10.85;9.30;;;;;;;;;;5324457;28;20019;-64
2022/09/28 00:20:21;;;;;;;11.15;9.68;;;;;;;;;;5326114;28;20031;-64
2022/09/28 00:22:52;;;;;;;13.60;9.63;;;;;;;;;;5325344;28;20019;-64
2022/09/28 00:25:23;;;;;;;15.38;10.10;;;;;;;;;;5324678;28;20027;-64
2022/09/28 00:27:56;;;;;;;12.93;10.10;;;;;;;;;;5325522;28;20030;-64
2022/09/28 00:30:27;;;;;;;11.10;9.93;;;;;;;;;;5325494;28;20068;-65
2022/09/28 00:32:58;;;;;;;10.93;9.85;;;;;;;;;;5324354;28;20015;-65
2022/09/28 00:35:29;;;;;;;12.48;10.23;;;;;;;;;;5325141;28;20096;-65
2022/09/28 00:38:02;;;;;;;12.02;10.75;;;;;;;;;;5324687;28;20040;-65
2022/09/28 00:40:33;;;;;;;12.35;10.50;;;;;;;;;;5325118;28;20035;-65
2022/09/28 00:43:18;;;;;;;13.45;10.18;;;;;;;;;;5325651;28;20058;-65
2022/09/28 00:46:01;;;;;;;11.98;9.63;;;;;;;;;;5323897;28;20172;-64
2022/09/28 00:48:35;;;;;;;13.23;9.88;;;;;;;;;;5324568;28;20056;-65
2022/09/28 00:51:08;;;;;;;11.55;9.73;;;;;;;;;;5325111;28;20479;-65
2022/09/28 00:53:41;;;;;;;12.75;10.27;;;;;;;;;;5324038;28;20016;-65
2022/09/28 00:56:16;;;;;;;14.00;10.65;;;;;;;;;;5325244;28;20023;-65
2022/09/28 00:58:49;;;;;;;14.45;10.57;;;;;;;;;;5324468;28;20019;-65
2022/09/28 01:01:20;;;;;;;12.05;10.85;;;;;;;;;;5324850;28;20016;-65
2022/09/28 01:03:52;;;;;;;15.45;11.02;;;;;;;;;;5324264;28;20095;-64
2022/09/28 01:06:26;;;;;;;13.15;10.60;;;;;;;;;;5323874;28;20027;-67
2022/09/28 01:08:59;;;;;;;16.02;11.13;;;;;;;;;;5324867;28;20016;-65
2022/09/28 01:11:31;;;;;;;15.80;11.32;;;;;;;;;;5324162;28;20485;-65
2022/09/28 01:14:05;;;;;;;16.63;12.23;;;;;;;;;;5324181;28;20018;-65
2022/09/28 01:16:44;;;;;;;14.63;12.38;;;;;;;;;;5324454;28;20500;-65
2022/09/28 01:19:15;;;;;;;16.02;12.50;;;;;;;;;;5324766;28;20434;-65
2022/09/28 01:21:54;;;;;;;14.85;12.73;;;;;;;;;;5323174;28;20027;-65
2022/09/28 01:24:34;;;;;;;14.48;12.93;;;;;;;;;;5324149;28;20360;-65
2022/09/28 01:27:25;;;;;;;16.02;12.75;;;;;;;;;;5323800;28;20560;-65
2022/09/28 01:30:04;;;;;;;16.58;13.38;;;;;;;;;;5324348;28;20034;-65
2022/09/28 01:32:54;;;;;;;14.95;12.90;;;;;;;;;;5323730;28;20020;-65
2022/09/28 01:35:30;;;;;;;17.38;13.45;;;;;;;;;;5323096;28;20058;-64
2022/09/28 01:38:03;;;;;;;16.67;13.60;;;;;;;;;;5324314;28;20024;-65
2022/09/28 01:40:35;;;;;;;18.20;14.82;;;;;;;;;;5323479;28;20015;-65
2022/09/28 01:43:08;;;;;;;20.20;14.65;;;;;;;;;;5323583;28;20111;-66
2022/09/28 01:45:42;;;;;;;19.55;14.25;;;;;;;;;;5323242;28;20035;-64
2022/09/28 01:48:17;;;;;;;16.98;15.18;;;;;;;;;;5323564;28;20012;-64
2022/09/28 01:50:51;;;;;;;22.50;17.00;;;;;;;;;;5323320;28;20092;-64
2022/09/28 01:53:31;;;;;;;16.85;14.60;;;;;;;;;;5324162;28;20032;-64
2022/09/28 01:56:06;;;;;;;21.70;16.42;;;;;;;;;;5323560;28;20015;-63
2022/09/28 01:58:39;;;;;;;21.02;16.67;;;;;;;;;;5323547;28;20007;-64
2022/09/28 02:01:14;;;;;;;19.35;16.73;;;;;;;;;;5323955;28;20020;-64
2022/09/28 02:03:48;;;;;;;23.83;17.73;;;;;;;;;;5322632;28;20016;-64
2022/09/28 02:06:25;;;;;;;20.23;16.98;;;;;;;;;;5323764;28;20031;-64
2022/09/28 02:09:00;;;;;;;19.15;15.77;;;;;;;;;;5323951;28;20462;-64
2022/09/28 02:11:36;;;;;;;23.50;16.27;;;;;;;;;;5322568;28;20016;-64
2022/09/28 02:14:09;;;;;;;20.33;15.90;;;;;;;;;;5323725;28;20474;-64
2022/09/28 02:16:41;;;;;;;18.40;14.30;;;;;;;;;;5322503;28;20437;-64
2022/09/28 02:19:14;;;;;;;21.92;13.25;;;;;;;;;;5323853;28;20159;-64
2022/09/28 02:21:57;;;;;;;15.77;12.98;;;;;;;;;;5323365;28;20256;-64
2022/09/28 02:24:28;;;;;;;15.43;11.20;;;;;;;;;;5322392;28;20060;-64
2022/09/28 02:27:02;;;;;;;14.18;10.27;;;;;;;;;;5323829;28;20119;-64
2022/09/28 02:29:33;;;;;;;12.60;9.98;;;;;;;;;;5323053;28;20019;-64
2022/09/28 02:32:04;;;;;;;12.02;9.75;;;;;;;;;;5322783;28;20020;-64
2022/09/28 02:34:35;;;;;;;11.45;8.27;;;;;;;;;;5323010;28;20412;-64
2022/09/28 02:37:06;;;;;;;12.38;8.60;;;;;;;;;;5323819;28;20040;-64
2022/09/28 02:39:38;;;;;;;11.65;8.50;;;;;;;;;;5322286;28;20082;-64
2022/09/28 02:42:28;;;;;;;10.40;7.68;;;;;;;;;;5323602;28;20036;-64
2022/09/28 02:45:07;;;;;;;7.93;7.07;;;;;;;;;;5322607;28;20023;-64
2022/09/28 02:48:11;;;;;;;10.70;7.68;;;;;;;;;;5323115;28;20035;-64
2022/09/28 02:50:54;;;;;;;8.80;6.85;;;;;;;;;;5288422;28;20362;-64
2022/09/28 02:53:38;;;;;;;12.98;7.03;;;;;;;;;;5322047;28;20024;-64
2022/09/28 02:56:28;;;;;;;9.40;7.20;;;;;;;;;;5325192;28;20098;-64
2022/09/28 02:59:22;;;;;;;11.07;6.93;;;;;;;;;;5326957;28;20024;-64
2022/09/28 03:01:59;;;;;;;8.80;6.45;;;;;;;;;;5318305;28;20099;-64
2022/09/28 03:04:47;;;;;;;8.40;6.60;;;;;;;;;;5327061;28;20030;-64
2022/09/28 03:07:29;;;;;;;12.50;6.25;;;;;;;;;;5326814;28;20027;-64
2022/09/28 03:10:04;;;;;;;9.95;6.57;;;;;;;;;;5327447;28;20016;-64
2022/09/28 03:12:36;;;;;;;7.68;6.88;;;;;;;;;;5325781;28;20102;-64
2022/09/28 03:15:09;;;;;;;8.38;7.00;;;;;;;;;;5327401;27;20020;-64
2022/09/28 03:17:41;;;;;;;8.55;6.60;;;;;;;;;;5326559;28;20024;-63
2022/09/28 03:20:12;;;;;;;8.20;6.15;;;;;;;;;;5326665;28;20359;-64
2022/09/28 03:22:44;;;;;;;8.55;5.70;;;;;;;;;;5326523;28;20012;-65
2022/09/28 03:25:15;;;;;;;6.65;5.25;;;;;;;;;;5327232;28;20056;-64
2022/09/28 03:27:46;;;;;;;5.85;4.55;;;;;;;;;;5325335;28;20137;-64
2022/09/28 03:30:17;;;;;;;8.32;4.80;;;;;;;;;;5327029;28;20020;-64
2022/09/28 03:32:59;;;;;;;10.18;5.22;;;;;;;;;;5326265;28;20102;-66
2022/09/28 03:35:30;;;;;;;5.10;3.70;;;;;;;;;;5325375;28;20073;-64
2022/09/28 03:38:01;;;;;;;4.78;3.75;;;;;;;;;;5326924;28;20474;-66
2022/09/28 03:40:32;;;;;;;5.07;3.90;;;;;;;;;;5326144;28;20125;-64
2022/09/28 03:43:03;;;;;;;7.45;4.00;;;;;;;;;;5325784;28;20373;-64
2022/09/28 03:45:35;;;;;;;6.50;4.00;;;;;;;;;;5325890;28;20050;-64
2022/09/28 03:48:06;;;;;;;8.30;3.60;;;;;;;;;;5325925;27;20039;-64
2022/09/28 03:50:37;;;;;;;4.18;3.83;;;;;;;;;;5325932;28;20066;-64
2022/09/28 03:53:08;;;;;;;6.20;3.33;;;;;;;;;;5326304;28;20103;-64
2022/09/28 03:55:39;;;;;;;5.47;3.45;;;;;;;;;;5325045;28;20065;-64
2022/09/28 03:58:10;;;;;;;4.28;3.15;;;;;;;;;;5326368;28;20130;-64
2022/09/28 04:00:42;;;;;;;5.95;3.80;;;;;;;;;;5325733;28;20016;-64
2022/09/28 04:03:13;;;;;;;5.65;2.95;;;;;;;;;;5325464;28;20466;-64
2022/09/28 04:05:48;;;;;;;4.90;2.67;;;;;;;;;;5325695;27;20993;-64
2022/09/28 04:08:20;;;;;;;5.63;2.45;;;;;;;;;;5325006;28;20511;-64
2022/09/28 04:10:51;;;;;;;7.25;2.75;;;;;;;;;;5324782;28;20016;-65
2022/09/28 04:13:22;;;;;;;3.97;2.45;;;;;;;;;;5326094;28;20043;-65
2022/09/28 04:15:54;;;;;;;3.75;2.20;;;;;;;;;;5325074;28;20446;-65
2022/09/28 04:18:26;;;;;;;2.80;1.42;;;;;;;;;;5325729;28;20123;-65
2022/09/28 04:21:02;;;;;;;4.13;1.40;;;;;;;;;;5326048;28;20027;-65
2022/09/28 04:23:34;;;;;;;5.25;1.10;;;;;;;;;;5324787;28;20423;-64
2022/09/28 04:26:06;;;;;;;3.58;0.90;;;;;;;;;;5325988;28;20026;-64
2022/09/28 04:31:28;;;;;;;3.63;1.00;;;;;;;;;;5324626;28;20122;-64
2022/09/28 04:33:59;;;;;;;4.13;1.00;;;;;;;;;;5325779;28;20051;-64
2022/09/28 04:36:31;;;;;;;5.86;0.94;;;;;;;;;;5325084;28;20058;-64
2022/09/28 04:39:02;;;;;;;4.05;0.85;;;;;;;;;;5324683;28;20022;-64
2022/09/28 04:41:33;;;;;;;5.10;0.70;;;;;;;;;;5325027;28;20021;-64
2022/09/28 04:44:04;;;;;;;3.97;0.80;;;;;;;;;;5324399;28;20028;-64
2022/09/28 04:46:36;;;;;;;2.72;0.75;;;;;;;;;;5324521;28;20508;-65
2022/09/28 04:49:08;;;;;;;2.03;0.70;;;;;;;;;;5325231;28;20034;-65
2022/09/28 04:51:40;;;;;;;4.95;0.73;;;;;;;;;;5323610;28;20120;-65
2022/09/28 04:54:11;;;;;;;5.65;0.85;;;;;;;;;;5325036;28;20467;-64
2022/09/28 04:56:42;;;;;;;1.77;0.70;;;;;;;;;;5324369;28;20588;-65
2022/09/28 04:59:13;;;;;;;3.16;0.70;;;;;;;;;;5324269;28;20484;-65
2022/09/28 05:01:44;;;;;;;2.60;0.65;;;;;;;;;;5324399;28;20389;-64
2022/09/28 05:04:16;;;;;;;3.45;0.60;;;;;;;;;;5324840;28;20031;-65
2022/09/28 05:06:47;;;;;;;3.28;0.82;;;;;;;;;;5323072;28;20034;-65
2022/09/28 05:09:18;;;;;;;3.55;0.68;;;;;;;;;;5324812;28;20351;-64
2022/09/28 05:11:51;;;;;;;4.12;0.70;;;;;;;;;;5324473;28;20073;-65
2022/09/28 05:14:23;;;;;;;2.90;0.63;;;;;;;;;;5324024;28;20033;-65
2022/09/28 05:16:54;;;;;;;2.65;0.77;;;;;;;;;;5324387;28;20094;-65
2022/09/28 05:19:25;;;;;;;2.00;0.73;;;;;;;;;;5322997;28;20032;-65
2022/09/28 05:21:57;;;;;;;3.05;0.80;;;;;;;;;;5324846;28;20097;-65
2022/09/28 05:24:28;;;;;;;3.67;1.20;;;;;;;;;;5323911;28;20024;-65
2022/09/28 05:26:59;;;;;;;4.25;0.80;;;;;;;;;;5323491;28;20482;-65
2022/09/28 05:29:30;;;;;;;5.18;0.80;;;;;;;;;;5323897;28;20444;-66
2022/09/28 05:32:01;;;;;;;2.05;0.80;;;;;;;;;;5324531;27;20019;-64
2022/09/28 05:34:33;;;;;;;2.15;1.00;;;;;;;;;;5323469;28;20065;-65
2022/09/28 05:37:04;;;;;;;2.45;1.30;;;;;;;;;;5324760;28;20075;-64
2022/09/28 05:39:35;;;;;;;5.13;1.55;;;;;;;;;;5323614;28;20195;-64
2022/09/28 05:42:06;;;;;;;3.20;1.58;;;;;;;;;;5323252;28;20031;-63
2022/09/28 05:44:38;;;;;;;4.20;1.70;;;;;;;;;;5323451;27;20027;-65
2022/09/28 05:47:09;;;;;;;7.05;2.17;;;;;;;;;;5324094;28;20467;-65
2022/09/28 05:49:41;;;;;;;3.75;2.80;;;;;;;;;;5322703;28;20045;-65
2022/09/28 05:52:12;;;;;;;6.38;3.95;;;;;;;;;;5324062;28;20473;-64
2022/09/28 05:54:43;;;;;;;8.68;3.83;;;;;;;;;;5322426;28;20023;-65
2022/09/28 05:57:15;;;;;;;6.68;3.80;;;;;;;;;;5324159;28;20102;-64
2022/09/28 05:59:46;;;;;;;5.18;3.50;;;;;;;;;;5323312;28;20027;-65
2022/09/28 06:02:17;;;;;;;5.40;4.20;;;;;;;;;;5323056;27;20458;-65
2022/09/28 06:04:50;;;;;;;6.78;4.32;;;;;;;;;;5322945;28;20447;-64
2022/09/28 06:07:22;;;;;;;6.85;3.97;;;;;;;;;;5323580;28;20114;-64
2022/09/28 06:09:53;;;;;;;7.03;4.53;;;;;;;;;;5322479;28;20094;-64
2022/09/28 06:12:24;;;;;;;5.45;4.63;;;;;;;;;;5323464;28;20127;-64
2022/09/28 06:14:58;;;;;;;8.02;4.65;;;;;;;;;;5323392;28;20085;-64
2022/09/28 06:17:29;;;;;;;6.88;4.80;;;;;;;;;;5322176;28;20028;-64
2022/09/28 06:20:00;;;;;;;6.43;4.45;;;;;;;;;;5323535;28;20380;-64
2022/09/28 06:22:31;;;;;;;5.78;4.65;;;;;;;;;;5322409;28;20019;-64
2022/09/28 06:25:03;;;;;;;10.07;4.45;;;;;;;;;;5323700;28;20079;-64
2022/09/28 06:27:34;;;;;;;7.55;5.15;;;;;;;;;;5323056;28;20035;-64
2022/09/28 06:30:06;;;;;;;7.10;5.35;;;;;;;;;;5322838;28;20023;-64
2022/09/28 06:32:37;;;;;;;6.95;5.82;;;;;;;;;;5327302;28;20080;-64
2022/09/28 06:35:08;;;;;;;9.52;6.60;;;;;;;;;;5328081;28;20072;-64
2022/09/28 06:37:43;;;;;;;10.77;7.80;;;;;;;;;;5326497;28;20020;-64
2022/09/28 06:40:14;;;;;;;10.55;7.63;;;;;;;;;;5327917;28;20016;-64
2022/09/28 06:43:01;;;;;;;9.23;8.20;;;;;;;;;;5327269;28;20443;-64
2022/09/28 06:45:32;;;;;;;9.82;6.97;;;;;;;;;;5326505;28;20411;-64
2022/09/28 06:48:04;;;;;;;8.10;6.43;;;;;;;;;;5327790;28;20072;-64
2022/09/28 06:50:37;;;;;;;8.88;5.72;;;;;;;;;;5326053;28;20047;-64
2022/09/28 06:53:09;;;;;;;9.18;6.25;;;;;;;;;;5327576;28;20102;-64
2022/09/28 06:55:42;;;;;;;8.30;5.53;;;;;;;;;;5327072;28;20044;-65
2022/09/28 06:58:14;;;;;;;5.75;4.40;;;;;;;;;;5327041;28;20418;-64
2022/09/28 07:00:46;;;;;;;4.95;4.03;;;;;;;;;;5326806;28;20027;-64
2022/09/28 07:03:19;;;;;;;6.15;3.70;;;;;;;;;;5327394;28;20454;-64
2022/09/28 07:05:52;;;;;;;5.25;3.45;;;;;;;;;;5326179;28;20019;-64
2022/09/28 07:08:24;;;;;;;6.38;3.00;;;;;;;;;;5327205;28;20042;-64
2022/09/28 07:10:55;;;;;;;5.03;3.53;;;;;;;;;;5327197;28;20015;-64
2022/09/28 07:13:27;;;;;;;5.90;3.00;;;;;;;;;;5325839;28;20485;-65
2022/09/28 07:15:58;;;;;;;5.72;3.30;;;;;;;;;;5327081;28;20019;-64
2022/09/28 07:18:29;;;;;;;9.02;3.20;;;;;;;;;;5326655;28;20020;-65
2022/09/28 07:21:02;;;;;;;7.03;3.22;;;;;;;;;;5326610;28;20133;-64
2022/09/28 07:23:34;;;;;;;3.55;2.45;;;;;;;;;;5326501;28;20023;-64
2022/09/28 07:26:05;;;;;;;5.07;2.30;;;;;;;;;;5326362;28;20027;-64
2022/09/28 07:28:39;;;;;;;5.00;2.25;;;;;;;;;;5326333;28;20296;-64
2022/09/28 07:31:10;;;;;;;3.97;2.05;;;;;;;;;;5327292;28;20016;-64
2022/09/28 07:33:42;;;;;;;3.70;1.83;;;;;;;;;;5325587;28;20016;-64
2022/09/28 07:36:15;;;;;;;4.00;2.38;;;;;;;;;;5327239;28;20095;-65
2022/09/28 07:38:48;;;;;;;4.72;1.75;;;;;;;;;;5326648;28;20020;-64
2022/09/28 07:41:31;;;;;;;6.68;2.22;;;;;;;;;;5326131;28;20015;-65
2022/09/28 07:44:04;;;;;;;4.63;2.63;;;;;;;;;;5326836;28;20039;-64
2022/09/28 07:46:36;;;;;;;6.57;2.22;;;;;;;;;;5326037;28;20359;-64
2022/09/28 07:49:07;;;;;;;5.78;1.40;;;;;;;;;;5325689;28;20071;-64
2022/09/28 07:51:39;;;;;;;4.32;1.90;;;;;;;;;;5325900;28;20062;-64
2022/09/28 07:54:10;;;;;;;4.90;1.90;;;;;;;;;;5325985;28;20474;-64
2022/09/28 07:56:42;;;;;;;2.70;1.98;;;;;;;;;;5326256;28;20065;-64
2022/09/28 07:59:17;;;;;;;2.67;1.85;;;;;;;;;;5326966;28;20026;-64
2022/09/28 08:01:48;;;;;;;3.85;2.05;;;;;;;;;;5325230;28;20016;-64
2022/09/28 08:04:20;;;;;;;8.80;2.20;;;;;;;;;;5326590;27;20024;-64
2022/09/28 08:06:51;;;;;;;5.45;1.85;;;;;;;;;;5325753;28;20058;-64
2022/09/28 08:09:22;;;;;;;5.93;1.92;;;;;;;;;;5325497;28;20107;-64
2022/09/28 08:11:53;;;;;;;7.20;1.90;;;;;;;;;;5325800;28;20428;-64
2022/09/28 08:14:25;;;;;;;3.63;2.20;;;;;;;;;;5326069;27;20015;-64
2022/09/28 08:16:57;;;;;;;5.28;1.83;;;;;;;;;;5325351;28;20023;-64
2022/09/28 08:21:43;;;;;;;3.45;2.45;;;;;;;;;;5325667;28;20019;-64
2022/09/28 08:22:22;;;;;;;4.60;2.00;;;;;;;;;;5325316;28;20024;-65
2022/09/28 08:24:53;;;;;;;5.40;2.63;;;;;;;;;;5321845;28;20536;-65
2022/09/28 08:27:24;;;;;;;5.90;2.72;;;;;;;;;;5324805;28;20059;-65
2022/09/28 08:29:55;;;;;;;6.28;3.10;;;;;;;;;;5324237;28;20027;-64
2022/09/28 08:32:28;;;;;;;8.05;2.75;;;;;;;;;;5324830;28;20031;-65
2022/09/28 08:34:59;;;;;;;6.90;2.83;;;;;;;;;;5325582;28;20385;-65
2022/09/28 08:37:30;;;;;;;5.18;3.00;;;;;;;;;;5324556;28;20080;-65
2022/09/28 08:40:02;;;;;;;5.30;3.00;;;;;;;;;;5325181;28;20102;-66
2022/09/28 08:42:38;;;;;;;4.60;3.15;;;;;;;;;;5324801;28;20262;-66
2022/09/28 08:45:13;;;;;;;5.13;2.53;;;;;;;;;;5324662;28;20103;-65
2022/09/28 08:50:56;;;;;;;5.13;1.52;;;;;;;;;;5324071;28;20044;-65
2022/09/28 08:53:33;;;;;;;5.78;1.35;;;;;;;;;;5324364;28;20016;-65
2022/09/28 08:56:09;;;;;;;6.55;1.83;;;;;;;;;;5317414;28;20019;-65
2022/09/28 08:58:47;;;;;;;4.90;1.50;;;;;;;;;;5303934;28;20020;-66
2022/09/28 09:01:19;;;;;;;7.15;1.80;;;;;;;;;;5303171;28;20437;-66
2022/09/28 09:03:51;;;;;;;3.80;2.03;;;;;;;;;;5302953;28;20095;-67
2022/09/28 09:06:26;;;;;;;8.32;2.17;;;;;;;;;;5303023;28;20024;-66
2022/09/28 09:09:02;;;;;;;3.47;1.77;;;;;;;;;;5303623;28;20028;-64
2022/09/28 09:11:43;;;;;;;4.60;2.55;;;;;;;;;;5302270;28;20102;-65
2022/09/28 09:14:20;;;;;;;6.65;1.80;;;;;;;;;;5303814;28;20095;-65
2022/09/28 09:16:54;;;;;;;6.25;2.28;;;;;;;;;;5303121;28;20024;-66
2022/09/28 09:19:41;;;;;;;4.28;1.92;;;;;;;;;;5302216;28;20028;-66
2022/09/28 09:22:31;;;;;;;5.07;1.85;;;;;;;;;;5303572;28;20114;-65
2022/09/28 09:25:11;;;;;;;4.72;1.98;;;;;;;;;;5303410;28;20111;-65
2022/09/28 09:27:55;;;;;;;3.60;1.63;;;;;;;;;;5301887;28;20047;-66
2022/09/28 09:30:28;;;;;;;4.53;1.30;;;;;;;;;;5302924;28;20016;-66
2022/09/28 09:33:11;;;;;;;3.00;0.90;;;;;;;;;;5302755;28;20024;-66
2022/09/28 09:35:42;;;;;;;3.08;1.02;;;;;;;;;;5302606;28;20024;-66
2022/09/28 09:38:37;;;;;;;3.20;0.75;;;;;;;;;;5303547;28;20020;-67
2022/09/28 09:41:18;;;;;;;3.00;0.98;;;;;;;;;;5302620;28;20016;-67
2022/09/28 09:43:57;;;;;;;1.80;0.47;;;;;;;;;;5301306;28;20028;-68
2022/09/28 09:46:28;;;;;;;;;;;;;;;;;;5301985;28;20032;-67
2022/09/28 09:49:06;;;;;;;2.65;0.55;;;;;;;;;;5303469;28;19904;-68
2022/09/28 09:51:51;;;;;;;1.58;0.75;;;;;;;;;;5302439;28;20177;-68
2022/09/28 09:54:37;;;;;;;2.05;0.70;;;;;;;;;;5302493;28;20016;-68
2022/09/28 09:57:13;;;;;;;3.85;1.00;;;;;;;;;;5302837;28;20035;-68
2022/09/28 09:59:46;;;;;;;2.95;0.57;;;;;;;;;;5302158;28;20392;-68
2022/09/28 10:02:27;;;;;;;2.58;0.70;;;;;;;;;;5302472;28;20020;-68
2022/09/28 10:05:01;;;;;;;2.80;0.50;;;;;;;;;;5302351;28;20113;-68
2022/09/28 10:07:37;;;;;;;2.22;0.60;;;;;;;;;;5301487;28;20470;-68
2022/09/28 10:10:16;;;;;;;3.05;0.50;;;;;;;;;;5302854;28;20510;-68
2022/09/28 10:12:49;;;;;;;2.05;0.80;;;;;;;;;;5302235;28;20039;-67
2022/09/28 10:15:23;;;;;;;3.03;0.70;;;;;;;;;;5301854;28;20016;-68
2022/09/28 10:17:55;;;;;;;2.53;0.70;;;;;;;;;;5302684;28;20478;-68
2022/09/28 10:20:28;;;;;;;3.33;0.73;;;;;;;;;;5301345;28;20109;-67
2022/09/28 10:23:01;;;;;;;2.17;0.70;;;;;;;;;;5301443;28;20016;-66
2022/09/28 10:25:36;;;;;;;5.68;0.70;;;;;;;;;;5302170;28;20022;-66
2022/09/28 10:28:10;;;;;;;3.00;0.60;;;;;;;;;;5301576;28;20047;-66
2022/09/28 10:30:43;;;;;;;4.55;0.70;;;;;;;;;;5301455;28;20028;-67
2022/09/28 10:33:31;;;;;;;2.38;0.70;;;;;;;;;;5302518;28;20020;-66
2022/09/28 10:36:05;;;;;;;3.27;0.60;;;;;;;;;;5301703;28;20012;-66
2022/09/28 10:38:36;;;;;;;4.60;0.70;;;;;;;;;;5301842;28;20020;-66
2022/09/28 10:41:09;;;;;;;3.25;0.80;;;;;;;;;;5302793;28;20493;-66
2022/09/28 10:44:04;;;;;;;3.53;0.70;;;;;;;;;;5300812;28;20059;-66
2022/09/28 10:46:37;;;;;;;2.17;0.77;;;;;;;;;;5301775;28;20115;-66
2022/09/28 10:49:14;;;;;;;2.65;1.10;;;;;;;;;;5303003;28;20428;-66
2022/09/28 10:51:50;;;;;;;3.35;0.60;;;;;;;;;;5300539;28;20047;-66
2022/09/28 10:54:23;;;;;;;3.10;0.80;;;;;;;;;;5302247;28;20062;-68
2022/09/28 10:56:55;;;;;;;3.53;0.68;;;;;;;;;;5301384;28;20383;-66
2022/09/28 10:59:30;;;;;;;1.45;0.50;;;;;;;;;;5302157;28;20051;-65
2022/09/28 11:02:06;;;;;;;1.70;0.70;;;;;;;;;;5302451;28;20095;-65
2022/09/28 11:04:40;;;;;;;3.38;0.63;;;;;;;;;;5301112;28;20016;-65
2022/09/28 11:07:18;;;;;;;4.30;0.52;;;;;;;;;;5301831;28;20035;-65
2022/09/28 11:09:50;;;;;;;8.77;1.38;;;;;;;;;;5301845;28;20403;-65
2022/09/28 11:12:23;;;;;;;2.83;0.50;;;;;;;;;;5301306;28;20024;-65
2022/09/28 11:15:03;;;;;;;3.10;0.57;;;;;;;;;;5301760;28;20024;-65
2022/09/28 11:17:42;;;;;;;2.40;0.40;;;;;;;;;;5304025;28;20031;-65
2022/09/28 11:20:23;;;;;;;1.90;0.40;;;;;;;;;;5305551;28;20051;-66
2022/09/28 11:22:54;;;;;;;3.25;0.40;;;;;;;;;;5305876;28;20069;-66
2022/09/28 11:25:29;;;;;;;1.52;0.30;;;;;;;;;;5304517;28;20493;-65
2022/09/28 11:28:00;;;;;;;1.77;0.30;;;;;;;;;;5305611;28;20173;-65
2022/09/28 11:30:43;;;;;;;2.22;0.40;;;;;;;;;;5305300;28;20514;-65
2022/09/28 11:33:19;;;;;;;0.70;0.30;;;;;;;;;;5305085;28;20028;-65
2022/09/28 11:35:55;;;;;;;2.78;0.30;;;;;;;;;;5305095;28;20020;-65
2022/09/28 11:38:26;;;;;;;3.22;0.50;;;;;;;;;;5305124;28;20032;-67
2022/09/28 11:41:16;;;;;;;1.30;0.40;;;;;;;;;;5304855;28;20103;-64
2022/09/28 11:43:50;;;;;;;3.20;0.70;;;;;;;;;;5305043;28;20266;-65
2022/09/28 11:46:30;;;;;;;3.55;0.50;;;;;;;;;;5304765;28;20063;-66
2022/09/28 11:49:19;;;;;;;3.40;0.45;;;;;;;;;;5305418;28;20016;-66
2022/09/28 11:51:51;;;;;;;3.65;0.50;;;;;;;;;;5304469;28;20043;-65
2022/09/28 11:54:43;;;;;;;3.80;0.57;;;;;;;;;;5304638;28;20016;-65
2022/09/28 11:57:16;;;;;;;4.43;0.75;;;;;;;;;;5305203;28;20481;-65
2022/09/28 11:59:57;;;;;;;4.75;0.85;;;;;;;;;;5304808;28;20358;-65
2022/09/28 12:02:28;;;;;;;2.63;0.60;;;;;;;;;;5304049;28;20102;-65
2022/09/28 12:05:08;;;;;;;1.85;0.50;;;;;;;;;;5305013;28;20108;-65
2022/09/28 12:07:45;;;;;;;3.60;0.50;;;;;;;;;;5303573;28;20059;-66
2022/09/28 12:10:22;;;;;;;1.50;0.40;;;;;;;;;;5305115;28;20094;-65
2022/09/28 12:12:58;;;;;;;2.35;0.50;;;;;;;;;;5304221;28;20024;-65
2022/09/28 12:15:53;;;;;;;2.53;0.40;;;;;;;;;;5303455;28;20355;-66
2022/09/28 12:18:31;;;;;;;2.83;0.50;;;;;;;;;;5275104;28;20028;-64
2022/09/28 12:21:26;;;;;;;3.70;0.40;;;;;;;;;;5304524;28;20106;-65
2022/09/28 12:24:03;;;;;;;1.77;0.40;;;;;;;;;;5304567;28;20034;-65
2022/09/28 12:26:55;;;;;;;2.83;0.30;;;;;;;;;;5303765;28;20020;-65
2022/09/28 12:29:32;;;;;;;2.83;0.40;;;;;;;;;;5316795;28;20084;-65
2022/09/28 12:32:10;;;;;;;2.78;0.40;;;;;;;;;;5325902;28;20027;-64
2022/09/28 12:34:42;;;;;;;1.77;0.40;;;;;;;;;;5324974;28;20484;-64
2022/09/28 12:37:32;;;;;;;3.67;0.30;;;;;;;;;;5324684;28;20032;-65
2022/09/28 12:40:09;;;;;;;10.68;0.50;;;;;;;;;;5325536;28;20114;-65
2022/09/28 12:43:07;;;;;;;4.50;0.57;;;;;;;;;;5324266;28;20015;-65
2022/09/28 12:45:50;;;;;;;1.67;0.28;;;;;;;;;;5322508;28;20024;-65
2022/09/28 12:48:35;;;;;;;2.63;0.30;;;;;;;;;;5325488;28;20036;-65
2022/09/28 12:51:24;;;;;;;2.80;0.28;;;;;;;;;;5324396;28;20063;-65
2022/09/28 12:54:05;;;;;;;1.75;0.20;;;;;;;;;;5325007;27;20016;-66
2022/09/28 12:56:45;;;;;;;2.10;0.20;;;;;;;;;;5324139;28;20490;-66
2022/09/28 12:59:17;;;;;;;2.85;0.35;;;;;;;;;;5325409;28;20030;-66
2022/09/28 13:02:00;;;;;;;5.10;0.20;;;;;;;;;;5324417;28;20039;-67
2022/09/28 13:04:37;;;;;;;1.10;0.10;;;;;;;;;;5323828;28;20030;-66
2022/09/28 13:07:14;;;;;;;1.63;0.10;;;;;;;;;;5324925;28;20031;-68
2022/09/28 13:09:56;;;;;;;0.63;0.10;;;;;;;;;;5324363;28;20015;-66
2022/09/28 13:12:27;;;;;;;1.23;0.13;;;;;;;;;;5323386;28;20499;-66
2022/09/28 13:15:01;;;;;;;0.90;0.08;;;;;;;;;;5325013;28;20024;-66
2022/09/28 13:17:47;;;;;;;0.90;0.13;;;;;;;;;;5323503;28;20269;-66
2022/09/28 13:20:22;;;;;;;0.73;0.10;;;;;;;;;;5324700;28;20024;-66
2022/09/28 13:23:04;;;;;;;0.80;0.10;;;;;;;;;;5322869;28;20046;-65
2022/09/28 13:25:39;;;;;;;0.60;0.10;;;;;;;;;;5321236;28;20080;-65
2022/09/28 13:28:11;;;;;;;2.53;0.10;;;;;;;;;;5324583;28;20024;-65
2022/09/28 13:30:43;;;;;;;1.20;0.10;;;;;;;;;;5323852;28;20536;-66
2022/09/28 13:33:21;;;;;;;1.55;0.10;;;;;;;;;;5323923;28;20484;-65
2022/09/28 13:35:53;;;;;;;0.73;0.15;;;;;;;;;;5324636;28;20443;-66
2022/09/28 13:38:28;;;;;;;1.45;0.20;;;;;;;;;;5323884;28;20098;-65
2022/09/28 13:41:02;;;;;;;0.20;0.10;;;;;;;;;;5320153;28;20394;-65
2022/09/28 13:43:53;;;;;;;0.30;0.03;;;;;;;;;;5323397;28;20106;-65
2022/09/28 13:46:43;;;;;;;0.30;0.00;;;;;;;;;;5321893;28;20103;-65
2022/09/28 13:49:19;;;;;;;0.38;0.00;;;;;;;;;;5324120;28;20370;-65
2022/09/28 13:51:57;;;;;;;0.98;0.08;;;;;;;;;;5323279;28;20059;-66
2022/09/28 13:54:46;;;;;;;0.38;0.10;;;;;;;;;;5322597;28;20407;-67
2022/09/28 13:57:18;;;;;;;0.50;0.00;;;;;;;;;;5324115;28;20494;-66
2022/09/28 14:00:01;;;;;;;0.52;0.00;;;;;;;;;;5322381;28;20023;-66
2022/09/28 14:02:32;;;;;;;0.60;0.00;;;;;;;;;;5323400;28;20027;-66
2022/09/28 14:05:05;;;;;;;0.80;0.00;;;;;;;;;;5323951;28;20004;-66
2022/09/28 14:07:36;;;;;;;0.35;0.00;;;;;;;;;;5322381;27;20289;-66
2022/09/28 14:10:19;;;;;;;0.75;0.10;;;;;;;;;;5324283;28;20076;-66
2022/09/28 14:12:51;;;;;;;1.33;0.05;;;;;;;;;;5323112;28;20280;-66
2022/09/28 14:15:28;;;;;;;1.25;0.10;;;;;;;;;;5323272;28;20016;-66
2022/09/28 14:18:06;;;;;;;2.75;0.20;;;;;;;;;;5323887;28;20016;-66
2022/09/28 14:20:39;;;;;;;0.90;0.20;;;;;;;;;;5322853;28;20072;-66
2022/09/28 14:23:37;;;;;;;0.88;0.17;;;;;;;;;;5323583;28;20031;-66
2022/09/28 14:26:23;;;;;;;2.92;0.40;;;;;;;;;;5320212;28;20447;-66
2022/09/28 14:29:15;;;;;;;2.63;0.10;;;;;;;;;;5322778;28;20043;-66
2022/09/28 14:31:46;;;;;;;1.58;0.20;;;;;;;;;;5323288;28;20440;-66
2022/09/28 14:34:22;;;;;;;1.38;0.28;;;;;;;;;;5323734;28;20026;-66
2022/09/28 14:42:33;;;;;;;2.75;0.30;;;;;;;;;;5322556;28;20106;-66
2022/09/28 14:45:05;;;;;;;0.82;0.10;;;;;;;;;;5323644;28;20090;-66
2022/09/28 14:47:43;;;;;;;1.00;0.00;;;;;;;;;;5322677;28;20193;-66
2022/09/28 14:50:21;;;;;;;0.63;0.07;;;;;;;;;;5322503;28;20048;-67
2022/09/28 14:52:53;;;;;;;0.30;0.00;;;;;;;;;;5325247;28;20024;-66
2022/09/28 14:55:30;;;;;;;1.30;0.08;;;;;;;;;;5327298;28;20527;-66
2022/09/28 14:58:03;;;;;;;0.98;0.00;;;;;;;;;;5326801;28;20020;-66
2022/09/28 15:00:34;;;;;;;0.45;0.00;;;;;;;;;;5326709;28;20028;-66
2022/09/28 15:03:09;;;;;;;1.00;0.00;;;;;;;;;;5326945;28;20022;-66
2022/09/28 15:05:42;;;;;;;0.73;0.10;;;;;;;;;;5326798;28;20019;-66
2022/09/28 15:08:14;;;;;;;0.28;0.00;;;;;;;;;;5327412;28;20095;-66
2022/09/28 15:10:46;;;;;;;0.50;0.00;;;;;;;;;;5326039;28;20023;-66
2022/09/28 15:13:19;;;;;;;0.70;0.00;;;;;;;;;;5327258;28;20023;-66
2022/09/28 15:15:57;;;;;;;0.25;0.00;;;;;;;;;;5326708;28;20056;-66
2022/09/28 15:18:46;;;;;;;0.40;0.00;;;;;;;;;;5325649;28;20031;-66
2022/09/28 15:21:17;;;;;;;0.20;0.00;;;;;;;;;;5327109;28;20020;-66
2022/09/28 15:23:49;;;;;;;0.73;0.00;;;;;;;;;;5326280;28;20019;-66
2022/09/28 15:26:31;;;;;;;1.15;0.00;;;;;;;;;;5326246;28;20031;-66
2022/09/28 15:29:15;;;;;;;1.40;0.00;;;;;;;;;;5327038;28;20051;-66
2022/09/28 15:31:46;;;;;;;0.50;0.00;;;;;;;;;;5325582;28;20137;-66
2022/09/28 15:37:20;;;;;;;0.47;0.00;;;;;;;;;;5326917;28;20035;-66
2022/09/28 15:39:53;;;;;;;0.20;0.00;;;;;;;;;;5325255;28;20036;-66